Chemstar Masa — 3FGM7 — position and weather

sailwx.info

Track history (hours):
 
Tides and Currents Weather Stations Pressure Air Temp Water Temp Dewpoint Dewpoint Depression Visibility Wind Speed Wind Dir Waves Ship Positions

Chemstar Masa

Last reported at 2014-Jul-21 14:25 UTC. Time now 2014-Jul-23 05:49 UTC.
Position N 29°28' W 094°51'.

Length 141 m; draft 6.3 m.

Type: Tanker. MMSI: 353456000.

Date/timePositionNaut miles runAvg speedWind from/ knotsBaromVisibWave heightAir tempDewpointWater temp
2014-Jul-21 14:25N 29°28' W 094°51'1011.6
2014-Jul-21 13:34N 29°36' W 094°57'9 9.4
2014-Jul-21 12:34N 29°44' W 095°03'6 5.7
2014-Jul-21 11:34N 29°44' W 095°09'2 2.0
2014-Jul-21 10:33N 29°45' W 095°12'0 0.0
2014-Jul-21 09:33N 29°45' W 095°12'0 0.0
2014-Jul-21 08:33N 29°45' W 095°12'0 0.0
2014-Jul-21 07:33N 29°45' W 095°12'0 0.0
2014-Jul-21 06:33N 29°45' W 095°12'0 0.0
2014-Jul-21 05:33N 29°44' W 095°12'0 0.0
2014-Jul-21 04:33N 29°45' W 095°12'0 0.0
2014-Jul-21 03:33N 29°45' W 095°12'0 0.0
2014-Jul-21 02:33N 29°45' W 095°12'0 0.0
2014-Jul-21 01:33N 29°44' W 095°12'0 0.0
2014-Jul-21 00:33N 29°45' W 095°12'0 0.0
2014-Jul-20 23:33N 29°45' W 095°12'0 0.0
2014-Jul-20 22:33N 29°45' W 095°12'0 0.0
2014-Jul-20 21:33N 29°45' W 095°12'0 0.0
2014-Jul-20 20:33N 29°45' W 095°12'0 0.0
2014-Jul-20 19:33N 29°45' W 095°12'0 0.0
2014-Jul-20 18:33N 29°45' W 095°12'0 0.0
2014-Jul-20 17:33N 29°44' W 095°12'0 0.0
2014-Jul-20 16:33N 29°45' W 095°12'0 0.0
2014-Jul-20 15:33N 29°45' W 095°12'0 0.0
2014-Jul-20 14:33N 29°45' W 095°12'0 0.0
2014-Jul-20 13:33N 29°45' W 095°12'0 0.0
2014-Jul-20 12:33N 29°45' W 095°12'0 0.0
2014-Jul-20 11:33N 29°45' W 095°12'0 0.0
2014-Jul-20 10:33N 29°45' W 095°12'0 0.0
2014-Jul-20 09:33N 29°45' W 095°12'0 0.0
2014-Jul-20 08:33N 29°44' W 095°12'0 0.0
2014-Jul-20 07:33N 29°44' W 095°12'0 0.0
2014-Jul-20 06:33N 29°45' W 095°12'0 0.0
2014-Jul-20 05:33N 29°44' W 095°12'0 0.0
2014-Jul-20 04:33N 29°45' W 095°12'0 0.0
2014-Jul-20 03:33N 29°45' W 095°12'0 0.0
2014-Jul-20 02:33N 29°44' W 095°12'0 0.0
2014-Jul-20 01:33N 29°44' W 095°12'0 0.0
2014-Jul-20 00:33N 29°44' W 095°12'0 0.0
2014-Jul-19 23:33N 29°45' W 095°12'0 0.0
2014-Jul-19 22:33N 29°45' W 095°12'0 0.0
2014-Jul-19 21:33N 29°44' W 095°12'0 0.0
2014-Jul-19 20:33N 29°45' W 095°12'0 0.0
2014-Jul-19 19:30N 29°45' W 095°12'0 0.0
2014-Jul-19 18:33N 29°45' W 095°12'0 0.0
2014-Jul-19 17:33N 29°45' W 095°12'0 0.0
2014-Jul-19 16:33N 29°45' W 095°12'0 0.0
2014-Jul-19 15:33N 29°45' W 095°12'0 0.0
2014-Jul-19 14:33N 29°45' W 095°12'0 0.0
2014-Jul-19 13:33N 29°44' W 095°12'0 0.0
2014-Jul-19 12:33N 29°45' W 095°12'0 0.0
2014-Jul-19 11:33N 29°44' W 095°12'0 0.4
2014-Jul-19 10:33N 29°45' W 095°11'4 4.4
2014-Jul-19 09:33N 29°45' W 095°06'6 6.0
2014-Jul-19 08:33N 29°42' W 095°00'1111.1
2014-Jul-19 07:33N 29°32' W 094°54'  
2014-Jul-16 06:21N 25°44' W 079°28'911.7
2014-Jul-16 05:33N 25°53' W 079°28'1111.4
2014-Jul-16 04:33N 26°04' W 079°27'1111.4
2014-Jul-16 03:33N 26°16' W 079°27'1211.6
2014-Jul-16 02:31N 26°28' W 079°27'1511.7
2014-Jul-16 01:13N 26°43' W 079°26'1111.6
2014-Jul-16 00:19N 26°54' W 079°26'  
Track history (hours):
 
Tides and Currents Weather Stations Pressure Air Temp Water Temp Dewpoint Dewpoint Depression Visibility Wind Speed Wind Dir Waves Ship Positions

Chemstar Masa

Last reported at 2014-Jul-21 14:25 UTC. Time now 2014-Jul-23 05:49 UTC.
Position N 29°28' W 094°51'.

Length 141 m; draft 6.3 m.

Type: Tanker. MMSI: 353456000.

Date/timePositionNaut miles runAvg speedWind from/ knotsBaromVisibWave heightAir tempDewpointWater temp
2014-Jul-21 14:25N 29°28' W 094°51'1011.6
2014-Jul-21 13:34N 29°36' W 094°57'9 9.4
2014-Jul-21 12:34N 29°44' W 095°03'6 5.7
2014-Jul-21 11:34N 29°44' W 095°09'2 2.0
2014-Jul-21 10:33N 29°45' W 095°12'0 0.0
2014-Jul-21 09:33N 29°45' W 095°12'0 0.0
2014-Jul-21 08:33N 29°45' W 095°12'0 0.0
2014-Jul-21 07:33N 29°45' W 095°12'0 0.0
2014-Jul-21 06:33N 29°45' W 095°12'0 0.0
2014-Jul-21 05:33N 29°44' W 095°12'0 0.0
2014-Jul-21 04:33N 29°45' W 095°12'0 0.0
2014-Jul-21 03:33N 29°45' W 095°12'0 0.0
2014-Jul-21 02:33N 29°45' W 095°12'0 0.0
2014-Jul-21 01:33N 29°44' W 095°12'0 0.0
2014-Jul-21 00:33N 29°45' W 095°12'0 0.0
2014-Jul-20 23:33N 29°45' W 095°12'0 0.0
2014-Jul-20 22:33N 29°45' W 095°12'0 0.0
2014-Jul-20 21:33N 29°45' W 095°12'0 0.0
2014-Jul-20 20:33N 29°45' W 095°12'0 0.0
2014-Jul-20 19:33N 29°45' W 095°12'0 0.0
2014-Jul-20 18:33N 29°45' W 095°12'0 0.0
2014-Jul-20 17:33N 29°44' W 095°12'0 0.0
2014-Jul-20 16:33N 29°45' W 095°12'0 0.0
2014-Jul-20 15:33N 29°45' W 095°12'0 0.0
2014-Jul-20 14:33N 29°45' W 095°12'0 0.0
2014-Jul-20 13:33N 29°45' W 095°12'0 0.0
2014-Jul-20 12:33N 29°45' W 095°12'0 0.0
2014-Jul-20 11:33N 29°45' W 095°12'0 0.0
2014-Jul-20 10:33N 29°45' W 095°12'0 0.0
2014-Jul-20 09:33N 29°45' W 095°12'0 0.0
2014-Jul-20 08:33N 29°44' W 095°12'0 0.0
2014-Jul-20 07:33N 29°44' W 095°12'0 0.0
2014-Jul-20 06:33N 29°45' W 095°12'0 0.0
2014-Jul-20 05:33N 29°44' W 095°12'0 0.0
2014-Jul-20 04:33N 29°45' W 095°12'0 0.0
2014-Jul-20 03:33N 29°45' W 095°12'0 0.0
2014-Jul-20 02:33N 29°44' W 095°12'0 0.0
2014-Jul-20 01:33N 29°44' W 095°12'0 0.0
2014-Jul-20 00:33N 29°44' W 095°12'0 0.0
2014-Jul-19 23:33N 29°45' W 095°12'0 0.0
2014-Jul-19 22:33N 29°45' W 095°12'0 0.0
2014-Jul-19 21:33N 29°44' W 095°12'0 0.0
2014-Jul-19 20:33N 29°45' W 095°12'0 0.0
2014-Jul-19 19:30N 29°45' W 095°12'0 0.0
2014-Jul-19 18:33N 29°45' W 095°12'0 0.0
2014-Jul-19 17:33N 29°45' W 095°12'0 0.0
2014-Jul-19 16:33N 29°45' W 095°12'0 0.0
2014-Jul-19 15:33N 29°45' W 095°12'0 0.0
2014-Jul-19 14:33N 29°45' W 095°12'0 0.0
2014-Jul-19 13:33N 29°44' W 095°12'0 0.0
2014-Jul-19 12:33N 29°45' W 095°12'0 0.0
2014-Jul-19 11:33N 29°44' W 095°12'0 0.4
2014-Jul-19 10:33N 29°45' W 095°11'4 4.4
2014-Jul-19 09:33N 29°45' W 095°06'6 6.0
2014-Jul-19 08:33N 29°42' W 095°00'1111.1
2014-Jul-19 07:33N 29°32' W 094°54'  
2014-Jul-16 06:21N 25°44' W 079°28'911.7
2014-Jul-16 05:33N 25°53' W 079°28'1111.4
2014-Jul-16 04:33N 26°04' W 079°27'1111.4
2014-Jul-16 03:33N 26°16' W 079°27'1211.6
2014-Jul-16 02:31N 26°28' W 079°27'1511.7
2014-Jul-16 01:13N 26°43' W 079°26'1111.6
2014-Jul-16 00:19N 26°54' W 079°26'  

Dump ship's entire track history